Дата Пункты Температура Давл., мм. Влажн., % Ветер Погодные явления
Воздуха Воды Направл. Скорость
06.09.18 03:00 Одесса 23.0 23.0 750 72 С-З 1 15 ЧАСОВ
06.09.18 12:00 Одесса 24.0 23.0 751 68 С 1 12 ЧАСОВ
06.09.18 09:00 Одесса 21.0 23.0 751 80 С 0 09 ЧАСОВ
06.09.18 06:00 Одесса 18.0 23.0 751 92 С-З 2 06 ЧАСОВ
06.09.18 03:00 Одесса 18.0 23.0 752 93 С 2 03 ЧАСА
05.09.18 09:00 Одесса 18.0 23.0 753 95 С 2 21 ЧАС
05.09.18 06:00 Одесса 19.0 24.0 754 92 С-З 3 18 ЧАСОВ
05.09.18 03:00 Одесса 22.0 24.0 753 79 В 2 15 ЧАСОВ
05.09.18 12:00 Одесса 23.0 24.0 753 85 В 5 12 ЧАСОВ
05.09.18 09:00 Одесса 22.0 24.0 754 71 С-В 5 09 ЧАСОВ
05.09.18 06:00 Одесса 20.0 24.0 753 73 С 1 06 ЧАСОВ
05.09.18 03:00 Одесса 24.0 24.0 754 66 В 6 03 ЧАСА
04.09.18 09:00 Одесса 24.0 24.0 754 79 Ю-В 2 21 ЧАС
04.09.18 06:00 Одесса 25.0 24.0 754 63 Ю 2 18 ЧАСОВ
04.09.18 03:00 Одесса 28.0 24.0 754 53 Ю-В 2 15 ЧАСОВ
04.09.18 12:00 Одесса 27.0 24.0 755 48 В 3 12 ЧАСОВ
04.09.18 09:00 Одесса 24.0 24.0 755 48 С 1 09 ЧАСОВ
04.09.18 06:00 Одесса 20.0 24.0 755 61 С 2 06 ЧАСОВ
04.09.18 03:00 Одесса 22.0 24.0 755 71 С-З 1 03 ЧАСА
03.09.18 09:00 Одесса 23.0 24.0 757 61 С-В 2 21 ЧАС
Количество строк
1 2 3 4 5 6 7 8 9 10
Page 7 of 407